createdAt,value
2022-11-26T00:01:31.229Z,102449.75
2022-11-26T00:06:38.554Z,102455.53
2022-11-26T00:11:40.382Z,102448.84
2022-11-26T00:16:42.732Z,102454.81
2022-11-26T00:21:44.318Z,102455.72
2022-11-26T00:26:45.872Z,102460.75
2022-11-26T00:31:47.371Z,102462.47
2022-11-26T00:36:48.945Z,102459.88
2022-11-26T00:41:52.350Z,102466.84
2022-11-26T00:46:53.829Z,102479.50
2022-11-26T00:51:55.312Z,102479.50
2022-11-26T00:56:57.876Z,102491.13
2022-11-26T01:01:59.443Z,102479.13
2022-11-26T01:07:00.970Z,102482.59
2022-11-26T01:12:02.494Z,102479.69
2022-11-26T01:17:05.657Z,102491.41
2022-11-26T01:22:18.963Z,102489.44
2022-11-26T01:27:20.917Z,102487.53
2022-11-26T01:32:28.018Z,102475.72
2022-11-26T01:37:30.862Z,102477.56
2022-11-26T01:42:42.381Z,102489.25
2022-11-26T01:47:44.172Z,102490.44
2022-11-26T01:52:45.934Z,102501.47
2022-11-26T01:57:47.645Z,102491.81
2022-11-26T02:02:49.316Z,102497.22
2022-11-26T02:07:53.035Z,102509.22
2022-11-26T02:12:54.745Z,102503.88
2022-11-26T02:18:04.245Z,102517.38
2022-11-26T02:23:24.333Z,102521.34
2022-11-26T02:28:53.106Z,102516.88
2022-11-26T02:34:01.230Z,102518.72
2022-11-26T02:39:20.877Z,102521.34
2022-11-26T02:44:25.418Z,102522.50
2022-11-26T02:49:29.092Z,102515.41
2022-11-26T02:54:33.510Z,102520.06
2022-11-26T02:59:35.878Z,102523.06
2022-11-26T03:04:41.353Z,102534.88
2022-11-26T03:09:56.202Z,102536.72
2022-11-26T03:14:57.907Z,102543.00
2022-11-26T03:19:59.453Z,102541.19
2022-11-26T03:25:00.918Z,102544.75
2022-11-26T03:30:03.390Z,102558.41
2022-11-26T03:35:05.416Z,102550.63
2022-11-26T03:40:07.979Z,102551.44
2022-11-26T03:45:09.801Z,102556.16
2022-11-26T03:50:11.565Z,102565.28
2022-11-26T03:55:13.150Z,102569.53
2022-11-26T04:00:14.912Z,102563.81
2022-11-26T04:05:16.391Z,102568.28
2022-11-26T04:10:17.948Z,102560.81
2022-11-26T04:15:19.383Z,102566.03
2022-11-26T04:20:20.824Z,102569.44
2022-11-26T04:25:22.330Z,102571.34
2022-11-26T04:30:23.820Z,102579.47
2022-11-26T04:35:25.381Z,102578.63
2022-11-26T04:40:26.964Z,102586.00
2022-11-26T04:45:28.490Z,102586.28
2022-11-26T04:50:29.973Z,102582.69
2022-11-26T04:55:31.543Z,102597.22
2022-11-26T05:00:33.230Z,102600.69
2022-11-26T05:05:34.851Z,102601.66
2022-11-26T05:10:36.396Z,102605.63
2022-11-26T05:15:38.037Z,102604.75
2022-11-26T05:20:39.514Z,102611.06
2022-11-26T05:25:41.055Z,102621.03
2022-11-26T05:30:42.615Z,102621.09
2022-11-26T05:35:44.087Z,102614.03
2022-11-26T05:40:45.592Z,102619.47
2022-11-26T05:45:47.264Z,102627.59
2022-11-26T05:50:53.177Z,102616.66
2022-11-26T05:55:56.115Z,102626.44
2022-11-26T06:00:57.627Z,102622.75
2022-11-26T06:05:59.137Z,102628.47
2022-11-26T06:11:00.675Z,102627.59
2022-11-26T06:16:02.222Z,102627.66
2022-11-26T06:21:05.929Z,102648.31
2022-11-26T06:26:12.532Z,102650.91
2022-11-26T06:31:14.100Z,102661.94
2022-11-26T06:36:15.645Z,102661.06
2022-11-26T06:41:17.179Z,102660.19
2022-11-26T06:46:18.728Z,102674.91
2022-11-26T06:51:21.874Z,102661.94
2022-11-26T06:56:23.514Z,102676.38
2022-11-26T07:01:26.829Z,102662.13
2022-11-26T07:06:31.093Z,102672.28
2022-11-26T07:11:33.630Z,102676.91
2022-11-26T07:16:35.683Z,102685.63
2022-11-26T07:21:37.879Z,102690.78
2022-11-26T07:26:39.344Z,102703.78
2022-11-26T07:31:40.883Z,102697.88
2022-11-26T07:36:43.588Z,102695.09
2022-11-26T07:41:45.195Z,102692.69
2022-11-26T07:46:46.764Z,102692.41
2022-11-26T07:51:48.208Z,102690.19
2022-11-26T07:56:49.651Z,102691.22
2022-11-26T08:01:51.294Z,102702.59
2022-11-26T08:06:52.924Z,102696.19
2022-11-26T08:11:54.445Z,102704.91
2022-11-26T08:16:57.135Z,102707.06
2022-11-26T08:21:58.645Z,102715.78
2022-11-26T08:27:00.145Z,102727.41
2022-11-26T08:32:01.648Z,102714.41
2022-11-26T08:37:03.336Z,102712.91
2022-11-26T08:42:04.884Z,102715.31
2022-11-26T08:47:06.481Z,102719.38
2022-11-26T08:52:07.986Z,102719.97
2022-11-26T08:57:09.494Z,102725.97
2022-11-26T09:02:16.006Z,102729.53
2022-11-26T09:07:20.051Z,102731.56
2022-11-26T09:12:21.781Z,102729.38
2022-11-26T09:17:23.246Z,102737.22
2022-11-26T09:22:24.747Z,102739.41
2022-11-26T09:27:26.231Z,102756.78
2022-11-26T09:32:33.669Z,102760.94
2022-11-26T09:37:35.761Z,102752.31
2022-11-26T09:42:59.055Z,102756.19
2022-11-26T09:48:03.122Z,102750.66
2022-11-26T09:53:22.108Z,102747.19
2022-11-26T09:58:33.964Z,102765.91
2022-11-26T10:03:39.752Z,102765.31
2022-11-26T10:08:59.770Z,102760.47
2022-11-26T10:14:09.860Z,102757.16
2022-11-26T10:19:22.727Z,102766.47
2022-11-26T10:24:36.173Z,102766.16
2022-11-26T10:29:41.635Z,102772.53
2022-11-26T10:34:57.672Z,102761.28
2022-11-26T10:40:25.530Z,102764.50
2022-11-26T10:45:36.924Z,102749.34
2022-11-26T10:50:47.909Z,102747.34
2022-11-26T10:55:52.278Z,102746.09
2022-11-26T11:00:59.660Z,102737.09
2022-11-26T11:06:22.965Z,102750.53
2022-11-26T11:11:28.089Z,102745.28
2022-11-26T11:16:37.640Z,102747.72
2022-11-26T11:21:43.856Z,102751.31
2022-11-26T11:26:55.734Z,102750.63
2022-11-26T11:31:57.806Z,102752.63
2022-11-26T11:37:14.775Z,102756.00
2022-11-26T11:42:28.212Z,102748.25
2022-11-26T11:47:52.633Z,102750.63
2022-11-26T11:53:22.974Z,102742.06
2022-11-26T11:58:48.804Z,102737.91
2022-11-26T12:04:17.985Z,102727.22
2022-11-26T12:09:40.097Z,102724.41
2022-11-26T12:14:47.843Z,102720.50
2022-11-26T12:19:58.782Z,102722.88
2022-11-26T12:25:23.381Z,102713.06
2022-11-26T12:30:31.398Z,102708.16
2022-11-26T12:35:44.003Z,102717.66
2022-11-26T12:40:53.110Z,102713.28
2022-11-26T12:46:15.521Z,102714.72
2022-11-26T12:51:45.486Z,102709.72
2022-11-26T12:57:04.733Z,102710.59
2022-11-26T13:02:33.284Z,102693.28
2022-11-26T13:08:01.255Z,102709.81
2022-11-26T13:13:19.458Z,102685.72
2022-11-26T13:18:33.672Z,102672.75
2022-11-26T13:23:47.763Z,102684.53
2022-11-26T13:29:08.305Z,102680.34
2022-11-26T13:34:22.853Z,102670.00
2022-11-26T13:39:43.083Z,102669.31
2022-11-26T13:44:59.662Z,102660.56
2022-11-26T13:50:29.504Z,102669.44
2022-11-26T13:55:41.269Z,102667.28
2022-11-26T14:00:43.540Z,102662.16
2022-11-26T14:05:50.978Z,102664.59
2022-11-26T14:10:52.467Z,102660.88
2022-11-26T14:15:55.663Z,102672.44
2022-11-26T14:20:57.120Z,102665.19
2022-11-26T14:25:58.611Z,102667.25
2022-11-26T14:31:23.831Z,102666.19
2022-11-26T14:36:28.644Z,102664.41
2022-11-26T14:41:54.201Z,102676.28
2022-11-26T14:46:59.204Z,102674.75
2022-11-26T14:52:04.811Z,102671.63
2022-11-26T14:57:21.443Z,102674.88
2022-11-26T15:02:24.573Z,102666.72
2022-11-26T15:07:27.372Z,102668.47
2022-11-26T15:12:29.645Z,102665.75
2022-11-26T15:17:33.307Z,102665.31
2022-11-26T15:22:42.468Z,102663.16
2022-11-26T15:27:59.148Z,102649.63
2022-11-26T15:33:12.761Z,102651.72
2022-11-26T15:38:20.487Z,102660.75
2022-11-26T15:43:31.193Z,102652.16
2022-11-26T15:48:55.218Z,102667.84
2022-11-26T15:53:57.283Z,102672.72
2022-11-26T15:59:02.200Z,102672.16
2022-11-26T16:04:04.659Z,102666.16
2022-11-26T16:09:16.162Z,102666.94
2022-11-26T16:14:23.656Z,102661.50
2022-11-26T16:19:27.638Z,102660.63
2022-11-26T16:24:38.681Z,102657.91
2022-11-26T16:29:40.581Z,102654.75
2022-11-26T16:34:42.330Z,102653.78
2022-11-26T16:39:43.863Z,102646.41
2022-11-26T16:44:45.323Z,102650.06
2022-11-26T16:49:46.908Z,102648.34
2022-11-26T16:54:49.251Z,102657.69
2022-11-26T16:59:59.568Z,102664.00
2022-11-26T17:05:01.026Z,102649.84
2022-11-26T17:10:03.596Z,102641.06
2022-11-26T17:15:05.440Z,102639.97
2022-11-26T17:20:18.337Z,102638.44
2022-11-26T17:25:20.274Z,102627.34
2022-11-26T17:30:24.136Z,102618.53
2022-11-26T17:35:25.677Z,102618.66
2022-11-26T17:40:30.569Z,102615.72
2022-11-26T17:45:32.135Z,102610.16
2022-11-26T17:50:36.105Z,102612.22
2022-11-26T17:55:38.554Z,102605.47
2022-11-26T18:00:40.144Z,102607.88
2022-11-26T18:05:42.388Z,102591.47
2022-11-26T18:10:44.100Z,102587.84
2022-11-26T18:15:45.613Z,102601.81
2022-11-26T18:20:47.078Z,102584.72
2022-11-26T18:25:48.654Z,102587.75
2022-11-26T18:30:50.192Z,102596.25
2022-11-26T18:35:51.723Z,102596.88
2022-11-26T18:41:01.056Z,102580.25
2022-11-26T18:46:06.314Z,102578.19
2022-11-26T18:51:08.304Z,102569.81
2022-11-26T18:56:15.261Z,102569.44
2022-11-26T19:01:21.313Z,102546.09
2022-11-26T19:06:25.824Z,102531.41
2022-11-26T19:11:27.824Z,102541.75
2022-11-26T19:16:29.334Z,102543.47
2022-11-26T19:21:35.072Z,102554.78
2022-11-26T19:26:37.572Z,102555.09
2022-11-26T19:31:39.804Z,102565.06
2022-11-26T19:36:44.303Z,102557.03
2022-11-26T19:41:48.412Z,102570.16
2022-11-26T19:46:55.861Z,102579.41
2022-11-26T19:51:59.426Z,102595.69
2022-11-26T19:57:03.165Z,102592.09
2022-11-26T20:02:07.135Z,102591.78
2022-11-26T20:07:11.360Z,102593.22
2022-11-26T20:12:15.449Z,102596.69
2022-11-26T20:17:19.519Z,102608.41
2022-11-26T20:22:21.055Z,102609.94
2022-11-26T20:27:24.103Z,102619.63
2022-11-26T20:32:25.604Z,102619.22
2022-11-26T20:37:27.149Z,102632.69
2022-11-26T20:42:28.660Z,102615.81
2022-11-26T20:47:30.164Z,102616.81
2022-11-26T20:52:31.662Z,102607.34
2022-11-26T20:57:37.210Z,102586.00
2022-11-26T21:02:38.808Z,102584.59
2022-11-26T21:07:40.930Z,102579.69
2022-11-26T21:12:43.018Z,102555.03
2022-11-26T21:17:44.615Z,102539.22
2022-11-26T21:22:46.191Z,102520.66
2022-11-26T21:27:51.626Z,102512.16
2022-11-26T21:32:55.874Z,102508.56
2022-11-26T21:37:58.572Z,102490.56
2022-11-26T21:43:00.083Z,102481.84
2022-11-26T21:48:01.536Z,102472.38
2022-11-26T21:53:03.092Z,102465.41
2022-11-26T21:58:04.598Z,102468.25
2022-11-26T22:03:11.243Z,102465.53
2022-11-26T22:08:13.054Z,102454.91
2022-11-26T22:13:14.764Z,102458.78
2022-11-26T22:18:16.267Z,102451.81
2022-11-26T22:23:18.243Z,102444.56
2022-11-26T22:28:19.799Z,102431.09
2022-11-26T22:33:21.313Z,102424.81
2022-11-26T22:38:22.844Z,102424.81
2022-11-26T22:43:24.367Z,102418.59
2022-11-26T22:48:25.921Z,102421.13
2022-11-26T22:53:27.594Z,102409.28
2022-11-26T22:58:30.702Z,102411.81
2022-11-26T23:03:34.875Z,102409.97
2022-11-26T23:08:37.823Z,102412.75
2022-11-26T23:13:42.912Z,102400.59
2022-11-26T23:18:44.457Z,102404.28
2022-11-26T23:23:46.660Z,102398.28
2022-11-26T23:28:48.127Z,102390.44
2022-11-26T23:33:50.125Z,102387.06
2022-11-26T23:38:52.339Z,102387.19
2022-11-26T23:43:54.162Z,102377.50
2022-11-26T23:48:55.887Z,102374.31
2022-11-26T23:53:57.814Z,102381.69
2022-11-26T23:59:02.691Z,102365.75
